Time;durP1;ratioP1;P1;durP2;ratioP2;P2;SDS_P1;SDS_P2;PMS_P1;PMS_P2;Temp;Humidity;BMP_temperature;BMP_pressure;BME280_temperature;BME280_humidity;BME280_pressure;Samples;Min_cycle;Max_cycle;Signal;HPM_P1;HPM_P2
2023/03/25 00:01:00;;;;;;;0.00;0.00;;;9.50;99.90;;;;;;5050954;28;20707;-58
2023/03/25 00:03:28;;;;;;;0.00;0.00;;;9.60;99.90;;;;;;5050980;28;20178;-57
2023/03/25 00:05:55;;;;;;;0.00;0.00;;;9.60;99.90;;;;;;5050656;28;20182;-58
2023/03/25 00:08:23;;;;;;;0.00;0.00;;;9.60;99.90;;;;;;5049632;28;20182;-58
2023/03/25 00:10:56;;;;;;;0.00;0.00;;;9.60;99.90;;;;;;5048236;28;20711;-57
2023/03/25 00:13:22;;;;;;;0.00;0.00;;;9.60;99.90;;;;;;5049826;28;20197;-58
2023/03/25 00:15:52;;;;;;;0.00;0.00;;;9.60;99.90;;;;;;5050262;28;20177;-57
2023/03/25 00:18:19;;;;;;;0.00;0.00;;;9.60;99.90;;;;;;5049612;28;20193;-58
2023/03/25 00:20:48;;;;;;;0.00;0.00;;;9.70;99.90;;;;;;5050093;28;20184;-58
2023/03/25 00:23:14;;;;;;;0.00;0.00;;;9.70;99.90;;;;;;5049985;28;20219;-58
2023/03/25 00:25:43;;;;;;;0.00;0.00;;;9.70;99.90;;;;;;5049859;28;20174;-58
2023/03/25 00:28:10;;;;;;;0.00;0.00;;;9.70;99.90;;;;;;5050329;28;20177;-58
2023/03/25 00:30:38;;;;;;;0.00;0.00;;;9.70;99.90;;;;;;5048413;28;20229;-57
2023/03/25 00:33:04;;;;;;;0.00;0.00;;;9.70;99.90;;;;;;5050075;28;20212;-57
2023/03/25 00:35:29;;;;;;;0.00;0.00;;;9.60;99.90;;;;;;5050641;28;20221;-58
2023/03/25 00:38:01;;;;;;;0.00;0.00;;;9.60;99.90;;;;;;5049886;28;20188;-58
2023/03/25 00:40:33;;;;;;;0.00;0.00;;;9.60;99.90;;;;;;5050247;28;20189;-58
2023/03/25 00:42:59;;;;;;;0.00;0.00;;;9.50;99.90;;;;;;5050188;28;20581;-58
2023/03/25 00:45:24;;;;;;;0.00;0.00;;;9.50;99.90;;;;;;5050592;28;20181;-58
2023/03/25 00:47:50;;;;;;;0.00;0.00;;;9.50;99.90;;;;;;5053367;28;20628;-58
2023/03/25 00:50:15;;;;;;;0.00;0.00;;;9.40;99.90;;;;;;5054041;28;20215;-58
2023/03/25 00:52:41;;;;;;;0.10;0.10;;;9.40;99.90;;;;;;5054068;28;20550;-58
2023/03/25 00:55:08;;;;;;;0.00;0.00;;;9.40;99.90;;;;;;5054193;28;20516;-58
2023/03/25 00:57:34;;;;;;;0.00;0.00;;;9.40;99.90;;;;;;5054260;28;20545;-58
2023/03/25 00:59:59;;;;;;;0.00;0.00;;;9.40;99.90;;;;;;5054254;28;20713;-58
2023/03/25 01:02:25;;;;;;;0.00;0.00;;;9.40;99.90;;;;;;5054033;28;20174;-58
2023/03/25 01:04:50;;;;;;;0.00;0.00;;;9.40;99.90;;;;;;5054470;28;20173;-58
2023/03/25 01:07:19;;;;;;;0.00;0.00;;;9.40;99.90;;;;;;5054181;28;20562;-58
2023/03/25 01:09:46;;;;;;;0.00;0.00;;;9.30;99.90;;;;;;5054395;28;20341;-58
2023/03/25 01:12:12;;;;;;;0.00;0.00;;;9.30;99.90;;;;;;5054193;28;20234;-58
2023/03/25 01:14:38;;;;;;;0.00;0.00;;;9.30;99.90;;;;;;5053794;28;20187;-58
2023/03/25 01:17:05;;;;;;;0.00;0.00;;;9.30;99.90;;;;;;5053950;28;20177;-58
2023/03/25 01:19:30;;;;;;;0.10;0.10;;;9.30;99.90;;;;;;5053895;28;20190;-58
2023/03/25 01:21:56;;;;;;;0.00;0.00;;;9.30;99.90;;;;;;5053732;28;20276;-58
2023/03/25 01:24:22;;;;;;;0.00;0.00;;;9.20;99.90;;;;;;5053657;28;20189;-58
2023/03/25 01:26:47;;;;;;;0.00;0.00;;;9.20;99.90;;;;;;5053669;28;20186;-58
2023/03/25 01:29:15;;;;;;;0.00;0.00;;;9.30;99.90;;;;;;5053555;28;20204;-58
2023/03/25 01:31:41;;;;;;;0.00;0.00;;;9.30;99.90;;;;;;5053585;28;20244;-58
2023/03/25 01:34:07;;;;;;;0.00;0.00;;;9.30;99.90;;;;;;5052563;28;20204;-58
2023/03/25 01:36:34;;;;;;;0.00;0.00;;;9.40;99.90;;;;;;5053239;28;20173;-58
2023/03/25 01:39:01;;;;;;;0.00;0.00;;;9.40;99.90;;;;;;5053510;28;20184;-58
2023/03/25 01:41:28;;;;;;;0.00;0.00;;;9.40;99.90;;;;;;5053234;28;20579;-58
2023/03/25 01:44:13;;;;;;;0.00;0.00;;;9.50;99.90;;;;;;5053278;28;20181;-58
2023/03/25 01:46:43;;;;;;;0.00;0.00;;;9.60;99.90;;;;;;5033845;28;20174;-58
2023/03/25 01:49:13;;;;;;;0.00;0.00;;;9.60;99.90;;;;;;5040713;28;20239;-58
2023/03/25 01:51:41;;;;;;;0.00;0.00;;;9.60;99.90;;;;;;5053437;28;20216;-58
2023/03/25 01:54:07;;;;;;;0.00;0.00;;;9.60;99.90;;;;;;5053427;28;20209;-58
2023/03/25 01:56:37;;;;;;;0.00;0.00;;;9.60;99.90;;;;;;5053639;28;20204;-57
2023/03/25 01:59:05;;;;;;;0.00;0.00;;;9.70;99.90;;;;;;5052399;28;20204;-57
2023/03/25 02:01:31;;;;;;;0.00;0.00;;;9.70;99.90;;;;;;5053303;28;20186;-57
2023/03/25 02:04:01;;;;;;;0.00;0.00;;;9.60;99.90;;;;;;5053291;28;20188;-58
2023/03/25 02:06:41;;;;;;;4.63;1.75;;;9.60;99.90;;;;;;5053270;28;20178;-58
2023/03/25 02:09:08;;;;;;;0.00;0.00;;;9.50;99.90;;;;;;5053099;28;20641;-58
2023/03/25 02:11:34;;;;;;;0.00;0.00;;;9.10;99.90;;;;;;5053029;28;20262;-58
2023/03/25 02:14:05;;;;;;;0.00;0.00;;;8.90;99.90;;;;;;5053164;28;20181;-58
2023/03/25 02:17:05;;;;;;;0.00;0.00;;;8.70;99.90;;;;;;5053222;28;20170;-58
2023/03/25 02:20:09;;;;;;;0.00;0.00;;;8.50;99.90;;;;;;5052892;28;20211;-58
2023/03/25 02:22:48;;;;;;;0.00;0.00;;;8.40;99.90;;;;;;5053024;28;20184;-58
2023/03/25 02:25:34;;;;;;;0.00;0.00;;;8.30;99.90;;;;;;5052963;28;20199;-58
2023/03/25 02:28:16;;;;;;;0.00;0.00;;;8.20;99.90;;;;;;5052715;28;20615;-58
2023/03/25 02:31:01;;;;;;;0.00;0.00;;;8.10;99.90;;;;;;5052704;28;20286;-58
2023/03/25 02:33:29;;;;;;;0.00;0.00;;;8.10;99.90;;;;;;5052906;28;20169;-58
2023/03/25 02:36:37;;;;;;;0.00;0.00;;;8.00;99.90;;;;;;5052804;28;20205;-58
2023/03/25 02:39:09;;;;;;;0.00;0.00;;;8.00;99.90;;;;;;5052167;28;20193;-58
2023/03/25 02:41:47;;;;;;;0.00;0.00;;;8.00;99.90;;;;;;5052203;28;20178;-58
2023/03/25 02:44:38;;;;;;;0.00;0.00;;;7.90;99.90;;;;;;5052282;28;20185;-58
2023/03/25 02:47:07;;;;;;;0.00;0.00;;;7.90;99.90;;;;;;5051342;28;20189;-57
2023/03/25 02:49:47;;;;;;;0.00;0.00;;;7.90;99.90;;;;;;5051882;28;20185;-58
2023/03/25 02:52:27;;;;;;;0.00;0.00;;;7.90;99.90;;;;;;5051982;28;20239;-58
2023/03/25 02:54:56;;;;;;;0.00;0.00;;;7.80;99.90;;;;;;5050662;28;20625;-58
2023/03/25 02:57:27;;;;;;;0.00;0.00;;;7.80;99.90;;;;;;5051604;28;20235;-58
2023/03/25 02:59:53;;;;;;;0.00;0.00;;;7.80;99.90;;;;;;5051558;28;20180;-58
2023/03/25 03:02:24;;;;;;;0.00;0.00;;;7.80;99.90;;;;;;5052052;28;20181;-57
2023/03/25 03:04:53;;;;;;;0.00;0.00;;;7.80;99.90;;;;;;5052494;28;20177;-58
2023/03/25 03:07:41;;;;;;;0.00;0.00;;;7.70;99.90;;;;;;5046509;28;20189;-59
2023/03/25 03:10:40;;;;;;;0.00;0.00;;;7.70;99.90;;;;;;5051319;28;20653;-58
2023/03/25 03:13:19;;;;;;;0.00;0.00;;;7.70;99.90;;;;;;5050892;28;20193;-58
2023/03/25 03:15:53;;;;;;;0.00;0.00;;;7.60;99.90;;;;;;5052265;28;20192;-58
2023/03/25 03:18:41;;;;;;;0.00;0.00;;;7.60;99.90;;;;;;5052167;28;20185;-58
2023/03/25 03:21:13;;;;;;;0.00;0.00;;;7.60;99.90;;;;;;5051866;28;20183;-58
2023/03/25 03:23:50;;;;;;;0.00;0.00;;;7.60;99.90;;;;;;5052196;28;20183;-58
2023/03/25 03:26:30;;;;;;;0.00;0.00;;;7.60;99.90;;;;;;5051916;28;20531;-59
2023/03/25 03:29:07;;;;;;;0.00;0.00;;;7.70;99.90;;;;;;5052068;28;20272;-58
2023/03/25 03:31:55;;;;;;;0.00;0.00;;;7.70;99.90;;;;;;5051749;28;20227;-58
2023/03/25 03:34:35;;;;;;;0.00;0.00;;;7.70;99.90;;;;;;5051867;28;20631;-58
2023/03/25 03:37:02;;;;;;;0.00;0.00;;;7.70;99.90;;;;;;5051683;28;20620;-58
2023/03/25 03:39:33;;;;;;;0.00;0.00;;;7.70;99.90;;;;;;5051976;28;20180;-58
2023/03/25 03:42:17;;;;;;;0.00;0.00;;;7.80;99.90;;;;;;5051774;28;20243;-58
2023/03/25 03:44:48;;;;;;;0.00;0.00;;;7.80;99.90;;;;;;5051252;28;20178;-58
2023/03/25 03:47:19;;;;;;;0.00;0.00;;;7.80;99.90;;;;;;5051483;28;20182;-58
2023/03/25 03:50:05;;;;;;;0.00;0.00;;;7.80;99.90;;;;;;5051494;28;20170;-58
2023/03/25 03:52:41;;;;;;;0.00;0.00;;;7.80;99.90;;;;;;5031535;28;20190;-57
2023/03/25 03:55:13;;;;;;;0.00;0.00;;;7.80;99.90;;;;;;5031408;28;20178;-58
2023/03/25 03:57:48;;;;;;;0.00;0.00;;;7.90;99.90;;;;;;5031554;28;20178;-58
2023/03/25 04:00:26;;;;;;;0.00;0.00;;;8.00;99.90;;;;;;5049643;28;20226;-58
2023/03/25 04:03:15;;;;;;;0.00;0.00;;;8.00;99.90;;;;;;5050880;28;20177;-58
2023/03/25 04:05:48;;;;;;;0.00;0.00;;;8.10;99.90;;;;;;5051325;28;20507;-58
2023/03/25 04:08:25;;;;;;;0.00;0.00;;;8.10;99.90;;;;;;5050694;28;20528;-58
2023/03/25 04:10:57;;;;;;;0.00;0.00;;;8.20;99.90;;;;;;5050730;28;20696;-58
2023/03/25 04:13:27;;;;;;;0.00;0.00;;;8.20;99.90;;;;;;5050138;28;20625;-58
2023/03/25 04:15:53;;;;;;;0.00;0.00;;;8.20;99.90;;;;;;5050683;28;20173;-58
2023/03/25 04:18:22;;;;;;;0.00;0.00;;;8.20;99.90;;;;;;5046815;28;20520;-57
2023/03/25 04:20:48;;;;;;;0.00;0.00;;;8.30;99.90;;;;;;5050316;28;20292;-58
2023/03/25 04:23:14;;;;;;;0.00;0.00;;;8.30;99.90;;;;;;5050613;28;20641;-57
2023/03/25 04:25:41;;;;;;;0.00;0.00;;;8.30;99.90;;;;;;5050821;28;20697;-58
2023/03/25 04:28:12;;;;;;;0.00;0.00;;;8.30;99.90;;;;;;5050766;28;20212;-58
2023/03/25 04:30:39;;;;;;;0.00;0.00;;;8.30;99.90;;;;;;5050690;28;20229;-58
2023/03/25 04:33:06;;;;;;;0.00;0.00;;;8.30;99.90;;;;;;5050645;28;20256;-58
2023/03/25 04:35:32;;;;;;;0.00;0.00;;;8.30;99.90;;;;;;5050791;28;20639;-58
2023/03/25 04:37:58;;;;;;;0.00;0.00;;;8.30;99.90;;;;;;5050916;28;20182;-58
2023/03/25 04:40:24;;;;;;;0.00;0.00;;;8.30;99.90;;;;;;5050768;28;20628;-58
2023/03/25 04:42:52;;;;;;;0.00;0.00;;;8.30;99.90;;;;;;5050839;28;20622;-58
2023/03/25 04:45:18;;;;;;;0.00;0.00;;;8.30;99.90;;;;;;5050733;28;20189;-58
2023/03/25 04:47:48;;;;;;;0.38;0.25;;;8.30;99.90;;;;;;5050644;28;20201;-58
2023/03/25 04:50:23;;;;;;;0.00;0.00;;;8.30;99.90;;;;;;5050680;28;20182;-57
2023/03/25 04:52:50;;;;;;;0.00;0.00;;;8.30;99.90;;;;;;5050865;28;20177;-58
2023/03/25 04:55:18;;;;;;;0.00;0.00;;;8.30;99.90;;;;;;5050596;28;20204;-58
2023/03/25 04:57:48;;;;;;;0.00;0.00;;;8.30;99.90;;;;;;5050698;28;20239;-58
2023/03/25 05:00:16;;;;;;;0.00;0.00;;;8.30;99.90;;;;;;5050392;28;20174;-58
2023/03/25 05:02:46;;;;;;;0.00;0.00;;;8.30;99.90;;;;;;5050481;28;20193;-57
2023/03/25 05:05:17;;;;;;;0.00;0.00;;;8.30;99.90;;;;;;5050063;28;20180;-57
2023/03/25 05:07:45;;;;;;;0.00;0.00;;;8.30;99.90;;;;;;5050217;28;20181;-57
2023/03/25 05:10:11;;;;;;;0.00;0.00;;;8.30;99.90;;;;;;5050045;28;20182;-57
2023/03/25 05:12:37;;;;;;;0.00;0.00;;;8.30;99.90;;;;;;5053025;28;20675;-57
2023/03/25 05:15:03;;;;;;;0.00;0.00;;;8.40;99.90;;;;;;5061111;28;20268;-58
2023/03/25 05:17:28;;;;;;;0.00;0.00;;;8.40;99.90;;;;;;5050045;28;20185;-57
2023/03/25 05:19:55;;;;;;;0.00;0.00;;;8.40;99.90;;;;;;5049752;28;20281;-58
2023/03/25 05:22:21;;;;;;;0.00;0.00;;;8.40;99.90;;;;;;5049297;28;20193;-57
2023/03/25 05:24:47;;;;;;;0.00;0.00;;;8.50;99.90;;;;;;5049379;28;20204;-57
2023/03/25 05:27:12;;;;;;;0.00;0.00;;;8.50;99.90;;;;;;5049499;28;20181;-57
2023/03/25 05:29:38;;;;;;;0.00;0.00;;;8.50;99.90;;;;;;5049388;28;20221;-58
2023/03/25 05:32:04;;;;;;;0.43;0.43;;;8.50;99.90;;;;;;5049005;28;20209;-57
2023/03/25 05:34:30;;;;;;;0.00;0.00;;;8.50;99.90;;;;;;5052398;28;20182;-57
2023/03/25 05:36:56;;;;;;;0.00;0.00;;;8.60;99.90;;;;;;5053629;28;20221;-57
2023/03/25 05:39:23;;;;;;;0.00;0.00;;;8.60;99.90;;;;;;5053410;28;20178;-57
2023/03/25 05:41:49;;;;;;;0.00;0.00;;;8.60;99.90;;;;;;5053504;28;20185;-57
2023/03/25 05:44:17;;;;;;;0.00;0.00;;;8.60;99.90;;;;;;5053279;28;20608;-57
2023/03/25 05:46:43;;;;;;;0.00;0.00;;;8.60;99.90;;;;;;5052801;28;20280;-57
2023/03/25 05:49:08;;;;;;;0.00;0.00;;;8.60;99.90;;;;;;5052920;28;20260;-57
2023/03/25 05:51:37;;;;;;;0.00;0.00;;;8.60;99.90;;;;;;5052700;28;20236;-57
2023/03/25 05:54:09;;;;;;;0.00;0.00;;;8.60;99.90;;;;;;5052974;28;20178;-57
2023/03/25 05:56:35;;;;;;;0.00;0.00;;;8.70;99.90;;;;;;5052891;28;20188;-57
2023/03/25 05:59:02;;;;;;;0.00;0.00;;;8.60;99.90;;;;;;5053069;28;20184;-57
2023/03/25 06:01:28;;;;;;;0.00;0.00;;;8.70;99.90;;;;;;5052724;28;20201;-57
2023/03/25 06:03:54;;;;;;;0.00;0.00;;;8.60;99.90;;;;;;5052610;28;20189;-57
2023/03/25 06:06:19;;;;;;;0.00;0.00;;;8.70;99.90;;;;;;5052881;28;20166;-57
2023/03/25 06:08:48;;;;;;;0.00;0.00;;;8.70;99.90;;;;;;5052409;28;20177;-57
2023/03/25 06:11:15;;;;;;;0.00;0.00;;;8.70;99.90;;;;;;5052581;28;20219;-57
2023/03/25 06:13:48;;;;;;;0.00;0.00;;;8.70;99.90;;;;;;5052474;28;20648;-57
2023/03/25 06:16:26;;;;;;;0.17;0.17;;;8.80;99.90;;;;;;5052554;28;20177;-57
2023/03/25 06:18:55;;;;;;;0.00;0.00;;;8.90;99.90;;;;;;5052476;28;20225;-57
2023/03/25 06:21:22;;;;;;;0.00;0.00;;;8.90;99.90;;;;;;5052381;28;20174;-58
2023/03/25 06:23:48;;;;;;;0.00;0.00;;;9.00;99.90;;;;;;5052757;28;20775;-58
2023/03/25 06:26:15;;;;;;;0.00;0.00;;;9.00;99.90;;;;;;5052320;28;20231;-57
2023/03/25 06:28:41;;;;;;;0.00;0.00;;;9.00;99.90;;;;;;5052387;28;20182;-58
2023/03/25 06:31:12;;;;;;;0.00;0.00;;;9.00;99.90;;;;;;5050701;28;20241;-58
2023/03/25 06:33:37;;;;;;;0.00;0.00;;;9.00;99.90;;;;;;5052351;28;20177;-58
2023/03/25 06:36:03;;;;;;;0.00;0.00;;;9.10;99.90;;;;;;5052033;28;20203;-58
2023/03/25 06:38:28;;;;;;;0.00;0.00;;;9.10;99.90;;;;;;5052455;28;20670;-57
2023/03/25 06:40:55;;;;;;;0.22;0.22;;;9.10;99.90;;;;;;5052072;28;20178;-57
2023/03/25 06:43:21;;;;;;;0.10;0.10;;;9.10;99.90;;;;;;5052280;28;20184;-57
2023/03/25 06:45:50;;;;;;;0.00;0.00;;;8.90;99.90;;;;;;5051724;28;20193;-57
2023/03/25 06:48:15;;;;;;;0.00;0.00;;;8.80;99.90;;;;;;5052163;28;20692;-57
2023/03/25 06:50:41;;;;;;;0.00;0.00;;;8.60;99.90;;;;;;5051932;28;20232;-57
2023/03/25 06:53:06;;;;;;;0.00;0.00;;;8.50;99.90;;;;;;5051995;28;20196;-57
2023/03/25 06:55:32;;;;;;;0.00;0.00;;;8.40;99.90;;;;;;5051919;28;20174;-57
2023/03/25 06:57:57;;;;;;;0.00;0.00;;;8.30;99.90;;;;;;5051878;28;20178;-57
2023/03/25 07:00:25;;;;;;;0.20;0.20;;;8.30;99.90;;;;;;5051611;28;20186;-57
2023/03/25 07:02:51;;;;;;;0.00;0.00;;;8.40;99.90;;;;;;5052093;28;20716;-57
2023/03/25 07:05:16;;;;;;;0.00;0.00;;;8.40;99.90;;;;;;5051613;28;20264;-57
2023/03/25 07:07:42;;;;;;;0.00;0.00;;;8.40;99.90;;;;;;5051867;28;20200;-58
2023/03/25 07:10:10;;;;;;;0.00;0.00;;;8.70;99.90;;;;;;5051502;28;20173;-58
2023/03/25 07:12:36;;;;;;;0.00;0.00;;;8.90;99.90;;;;;;5051638;28;20594;-58
2023/03/25 07:15:02;;;;;;;0.00;0.00;;;9.00;99.90;;;;;;5051581;28;20184;-58
2023/03/25 07:17:27;;;;;;;0.00;0.00;;;8.90;99.90;;;;;;5051815;28;20546;-58
2023/03/25 07:19:53;;;;;;;0.00;0.00;;;8.90;99.90;;;;;;5051379;28;20188;-58
2023/03/25 07:22:18;;;;;;;0.00;0.00;;;8.90;99.90;;;;;;5051141;28;20193;-58
2023/03/25 07:24:44;;;;;;;0.00;0.00;;;9.10;99.90;;;;;;5051753;28;20553;-57
2023/03/25 07:27:11;;;;;;;0.00;0.00;;;9.20;99.90;;;;;;5050596;28;20257;-58
2023/03/25 07:29:37;;;;;;;0.00;0.00;;;9.30;99.90;;;;;;5051331;28;20744;-59
2023/03/25 07:32:02;;;;;;;0.00;0.00;;;9.30;99.90;;;;;;5051253;28;20224;-58
2023/03/25 07:34:28;;;;;;;0.00;0.00;;;9.30;99.90;;;;;;5050879;28;20174;-57
2023/03/25 07:36:53;;;;;;;0.35;0.35;;;9.50;99.90;;;;;;5051004;28;20646;-59
2023/03/25 07:39:20;;;;;;;0.00;0.00;;;10.00;99.90;;;;;;5050675;28;20203;-61
2023/03/25 07:41:46;;;;;;;0.00;0.00;;;10.70;99.90;;;;;;5050670;28;20565;-59
2023/03/25 07:44:13;;;;;;;0.00;0.00;;;11.10;99.90;;;;;;5050834;28;20189;-63
2023/03/25 07:46:38;;;;;;;0.85;0.85;;;11.20;99.90;;;;;;5050986;28;20713;-60
2023/03/25 07:49:04;;;;;;;0.00;0.00;;;11.30;99.90;;;;;;5050755;28;20173;-59
2023/03/25 07:51:31;;;;;;;0.00;0.00;;;11.40;99.90;;;;;;5050931;28;20863;-59
2023/03/25 07:53:57;;;;;;;0.00;0.00;;;11.20;99.90;;;;;;5050551;28;20177;-58
2023/03/25 07:56:23;;;;;;;0.00;0.00;;;10.90;99.90;;;;;;5050622;28;20188;-58
2023/03/25 07:58:48;;;;;;;0.00;0.00;;;10.70;99.90;;;;;;5051139;28;20211;-60
2023/03/25 08:01:14;;;;;;;0.00;0.00;;;10.70;99.90;;;;;;5050379;28;20188;-59
2023/03/25 08:03:40;;;;;;;0.00;0.00;;;10.70;99.90;;;;;;5051038;28;20254;-58
2023/03/25 08:06:06;;;;;;;0.00;0.00;;;10.50;99.90;;;;;;5050426;28;20323;-58
2023/03/25 08:08:32;;;;;;;0.00;0.00;;;10.20;99.90;;;;;;5051142;28;20185;-57
2023/03/25 08:10:58;;;;;;;0.00;0.00;;;10.10;99.90;;;;;;5050644;28;20209;-60
2023/03/25 08:13:24;;;;;;;0.00;0.00;;;10.00;99.90;;;;;;5050805;28;20231;-60
2023/03/25 08:15:50;;;;;;;0.00;0.00;;;10.10;99.90;;;;;;5050547;28;20189;-59
2023/03/25 08:18:16;;;;;;;0.00;0.00;;;10.40;99.90;;;;;;5050655;28;20264;-59
2023/03/25 08:20:41;;;;;;;0.00;0.00;;;10.70;99.90;;;;;;5050552;28;20265;-61
2023/03/25 08:23:09;;;;;;;0.00;0.00;;;11.00;99.90;;;;;;5050616;28;20200;-60
2023/03/25 08:25:35;;;;;;;0.00;0.00;;;10.90;99.90;;;;;;5050739;28;20298;-59
2023/03/25 08:28:01;;;;;;;0.00;0.00;;;10.90;99.90;;;;;;5050336;28;20173;-59
2023/03/25 08:30:27;;;;;;;0.00;0.00;;;11.00;99.90;;;;;;5050222;28;20227;-59
2023/03/25 08:32:55;;;;;;;0.00;0.00;;;11.10;99.90;;;;;;5050851;28;20182;-59
2023/03/25 08:35:22;;;;;;;0.00;0.00;;;11.10;99.90;;;;;;5050416;28;20174;-59
2023/03/25 08:37:48;;;;;;;0.00;0.00;;;11.10;99.90;;;;;;5050497;28;20186;-59
2023/03/25 08:40:18;;;;;;;0.00;0.00;;;11.10;99.90;;;;;;5050607;28;20211;-59
2023/03/25 08:42:45;;;;;;;3.25;1.00;;;11.00;99.90;;;;;;5050513;28;20264;-59
2023/03/25 08:45:11;;;;;;;0.00;0.00;;;10.80;99.90;;;;;;5050274;28;20204;-59
2023/03/25 08:47:37;;;;;;;0.00;0.00;;;10.70;99.90;;;;;;5050693;28;20235;-59
2023/03/25 08:50:03;;;;;;;0.00;0.00;;;10.60;99.90;;;;;;5049819;28;20177;-59
2023/03/25 08:52:29;;;;;;;0.00;0.00;;;10.50;99.90;;;;;;5050581;28;20749;-59
2023/03/25 08:54:54;;;;;;;0.00;0.00;;;10.30;99.90;;;;;;5050208;28;20268;-59
2023/03/25 08:57:20;;;;;;;0.00;0.00;;;10.00;99.90;;;;;;5050136;28;20671;-59
2023/03/25 08:59:46;;;;;;;0.00;0.00;;;9.70;99.90;;;;;;5049552;28;20227;-60
2023/03/25 09:02:12;;;;;;;0.00;0.00;;;9.60;99.90;;;;;;5049119;28;20730;-59
2023/03/25 09:04:38;;;;;;;0.00;0.00;;;9.50;99.90;;;;;;5048801;28;20256;-60
2023/03/25 09:07:04;;;;;;;0.05;0.05;;;9.50;99.90;;;;;;5049119;28;20173;-59
2023/03/25 09:09:30;;;;;;;0.00;0.00;;;9.50;99.90;;;;;;5052898;28;20193;-60
2023/03/25 09:11:55;;;;;;;0.00;0.00;;;9.50;99.90;;;;;;5052777;28;20270;-59
2023/03/25 09:14:21;;;;;;;0.00;0.00;;;9.50;99.90;;;;;;5054206;28;20197;-59
2023/03/25 09:16:46;;;;;;;0.00;0.00;;;9.70;99.90;;;;;;5054015;28;20553;-60
2023/03/25 09:19:12;;;;;;;0.00;0.00;;;9.90;99.90;;;;;;5054243;28;20315;-60
2023/03/25 09:21:37;;;;;;;0.00;0.00;;;10.00;99.90;;;;;;5053872;28;20863;-60
2023/03/25 09:24:03;;;;;;;0.00;0.00;;;9.90;99.90;;;;;;5053844;28;20567;-59
2023/03/25 09:26:28;;;;;;;0.00;0.00;;;9.90;99.90;;;;;;5054129;28;20181;-60
2023/03/25 09:28:56;;;;;;;0.00;0.00;;;9.80;99.90;;;;;;5051918;28;20260;-60
2023/03/25 09:31:23;;;;;;;0.00;0.00;;;9.80;99.90;;;;;;5053925;28;20287;-60
2023/03/25 09:33:48;;;;;;;0.00;0.00;;;9.90;99.90;;;;;;5053753;28;20578;-60
2023/03/25 09:36:14;;;;;;;0.00;0.00;;;10.10;99.90;;;;;;5053438;28;20181;-60
2023/03/25 09:38:39;;;;;;;0.00;0.00;;;10.30;99.90;;;;;;5054035;28;20204;-60
2023/03/25 09:41:26;;;;;;;0.00;0.00;;;10.80;99.90;;;;;;5053895;28;20173;-60
2023/03/25 09:44:03;;;;;;;0.00;0.00;;;10.90;99.90;;;;;;5054064;28;20181;-60
2023/03/25 09:46:29;;;;;;;0.00;0.00;;;11.00;99.90;;;;;;5046014;28;20654;-60
2023/03/25 09:48:56;;;;;;;0.00;0.00;;;10.70;99.90;;;;;;5053683;28;20181;-60
2023/03/25 09:51:29;;;;;;;0.00;0.00;;;10.50;99.90;;;;;;5053475;28;20224;-60
2023/03/25 09:54:03;;;;;;;0.00;0.00;;;10.60;99.90;;;;;;5053343;28;20173;-60
2023/03/25 09:56:33;;;;;;;0.00;0.00;;;10.60;99.90;;;;;;5046854;28;20188;-60
2023/03/25 09:59:04;;;;;;;0.00;0.00;;;10.60;99.90;;;;;;5053660;28;20180;-60
2023/03/25 10:01:44;;;;;;;0.00;0.00;;;10.60;99.90;;;;;;5053238;28;20538;-60
2023/03/25 10:04:39;;;;;;;0.00;0.00;;;10.70;99.90;;;;;;5053711;28;20201;-60
2023/03/25 10:07:23;;;;;;;0.00;0.00;;;11.00;99.90;;;;;;5053866;28;20251;-60
2023/03/25 10:10:07;;;;;;;0.00;0.00;;;10.90;99.90;;;;;;5053335;28;20201;-60
2023/03/25 10:13:10;;;;;;;0.00;0.00;;;10.90;99.90;;;;;;5052637;28;20327;-60
2023/03/25 10:15:43;;;;;;;0.00;0.00;;;10.90;99.90;;;;;;5053523;28;20640;-60
2023/03/25 10:18:28;;;;;;;0.00;0.00;;;10.90;99.90;;;;;;5053420;28;20192;-60
2023/03/25 10:21:18;;;;;;;0.00;0.00;;;11.10;99.90;;;;;;5053198;28;20178;-60
2023/03/25 10:23:55;;;;;;;0.00;0.00;;;11.30;99.90;;;;;;5053405;28;20213;-60
2023/03/25 10:26:33;;;;;;;0.00;0.00;;;11.60;99.90;;;;;;5053498;28;20207;-60
2023/03/25 10:29:03;;;;;;;0.00;0.00;;;11.90;99.90;;;;;;5052988;28;20264;-60
2023/03/25 10:31:34;;;;;;;0.00;0.00;;;12.20;99.90;;;;;;5053384;28;20227;-60
2023/03/25 10:34:05;;;;;;;0.00;0.00;;;12.30;99.90;;;;;;5052892;28;20205;-60
2023/03/25 10:36:39;;;;;;;0.00;0.00;;;12.60;99.90;;;;;;5053076;28;20528;-60
2023/03/25 10:39:15;;;;;;;0.00;0.00;;;13.00;99.90;;;;;;5053027;28;20177;-60
2023/03/25 10:41:42;;;;;;;0.00;0.00;;;12.80;99.90;;;;;;5053110;28;20177;-60
2023/03/25 10:44:09;;;;;;;0.00;0.00;;;12.80;99.90;;;;;;5052333;28;20223;-60
2023/03/25 10:46:46;;;;;;;0.00;0.00;;;12.70;99.90;;;;;;5052021;28;20192;-60
2023/03/25 10:49:21;;;;;;;0.00;0.00;;;13.00;99.90;;;;;;5052743;28;20274;-60
2023/03/25 10:51:48;;;;;;;0.00;0.00;;;12.90;99.90;;;;;;5052407;28;20216;-60
2023/03/25 10:54:16;;;;;;;0.00;0.00;;;13.00;99.90;;;;;;5052634;28;20727;-60
2023/03/25 10:56:51;;;;;;;0.00;0.00;;;13.00;99.90;;;;;;5052086;28;20200;-60
2023/03/25 10:59:35;;;;;;;0.00;0.00;;;12.80;99.90;;;;;;5052366;28;20260;-60
2023/03/25 11:02:11;;;;;;;0.00;0.00;;;12.40;99.90;;;;;;5051751;28;20185;-60
2023/03/25 11:04:41;;;;;;;0.00;0.00;;;12.20;99.90;;;;;;5052359;28;20212;-60
2023/03/25 11:07:20;;;;;;;0.00;0.00;;;12.00;99.90;;;;;;5052347;28;20252;-60
2023/03/25 11:09:46;;;;;;;0.00;0.00;;;11.90;99.90;;;;;;5043081;28;20610;-60
2023/03/25 11:12:18;;;;;;;0.00;0.00;;;11.90;99.90;;;;;;5052523;28;20304;-60
2023/03/25 11:14:43;;;;;;;0.00;0.00;;;12.10;99.90;;;;;;5050627;28;20177;-60
2023/03/25 11:17:17;;;;;;;0.00;0.00;;;12.10;99.90;;;;;;5051795;28;20621;-60
2023/03/25 11:19:51;;;;;;;0.00;0.00;;;12.00;99.90;;;;;;5051981;28;20182;-60
2023/03/25 11:22:36;;;;;;;0.13;0.13;;;11.90;99.90;;;;;;5051672;28;20185;-60
2023/03/25 11:25:05;;;;;;;0.00;0.00;;;12.00;99.90;;;;;;5051535;28;20186;-60
2023/03/25 11:27:57;;;;;;;0.00;0.00;;;11.90;99.90;;;;;;5051981;28;20181;-60
2023/03/25 11:30:24;;;;;;;0.00;0.00;;;12.30;99.90;;;;;;5050972;28;20213;-60
2023/03/25 11:33:16;;;;;;;0.00;0.00;;;12.70;99.90;;;;;;5050885;28;20177;-60
2023/03/25 11:35:43;;;;;;;0.00;0.00;;;12.60;99.90;;;;;;5040021;28;20181;-60
2023/03/25 11:38:19;;;;;;;0.00;0.00;;;12.40;99.90;;;;;;5051761;28;20185;-60
2023/03/25 11:40:51;;;;;;;0.00;0.00;;;12.30;99.90;;;;;;5051769;28;20205;-60
2023/03/25 11:43:25;;;;;;;0.00;0.00;;;12.10;99.90;;;;;;5050332;28;20190;-60
2023/03/25 11:45:51;;;;;;;0.00;0.00;;;12.10;99.90;;;;;;5051537;28;20220;-60
2023/03/25 11:48:20;;;;;;;0.00;0.00;;;12.10;99.90;;;;;;5051398;28;20520;-60
2023/03/25 11:50:54;;;;;;;0.00;0.00;;;12.50;99.90;;;;;;5051798;28;20216;-60
2023/03/25 11:53:21;;;;;;;0.00;0.00;;;12.70;99.90;;;;;;5045953;28;20271;-60
2023/03/25 11:55:50;;;;;;;0.00;0.00;;;13.10;99.90;;;;;;5051344;28;20264;-60
2023/03/25 11:58:20;;;;;;;0.00;0.00;;;13.30;99.90;;;;;;5051141;28;20204;-60
2023/03/25 12:00:50;;;;;;;0.00;0.00;;;13.20;99.90;;;;;;5051669;28;20177;-60
2023/03/25 12:03:26;;;;;;;0.00;0.00;;;13.00;99.50;;;;;;5050836;28;20181;-61
2023/03/25 12:06:13;;;;;;;0.00;0.00;;;13.10;99.90;;;;;;5051381;28;20177;-61
2023/03/25 12:08:58;;;;;;;0.00;0.00;;;13.50;99.90;;;;;;5051291;28;20200;-60
2023/03/25 12:11:35;;;;;;;0.00;0.00;;;13.70;97.60;;;;;;5039213;28;20217;-60
2023/03/25 12:14:48;;;;;;;0.00;0.00;;;14.00;97.30;;;;;;5051196;28;20183;-60
2023/03/25 12:17:33;;;;;;;0.00;0.00;;;13.90;95.70;;;;;;5050756;28;20188;-60
2023/03/25 12:20:22;;;;;;;0.00;0.00;;;13.50;95.60;;;;;;5051165;28;20535;-60
2023/03/25 12:23:17;;;;;;;0.00;0.00;;;13.20;96.30;;;;;;5050923;28;20264;-60
2023/03/25 12:25:53;;;;;;;0.00;0.00;;;12.90;96.40;;;;;;5036847;28;20177;-60
2023/03/25 12:28:58;;;;;;;0.00;0.00;;;12.70;98.50;;;;;;5047851;28;20189;-60
2023/03/25 12:31:40;;;;;;;0.00;0.00;;;12.60;99.10;;;;;;5050153;28;20229;-60
2023/03/25 12:34:18;;;;;;;0.00;0.00;;;12.70;99.50;;;;;;5051089;28;20173;-60
2023/03/25 12:36:53;;;;;;;0.00;0.00;;;13.10;98.30;;;;;;5051161;28;20185;-60
2023/03/25 12:39:53;;;;;;;0.00;0.00;;;13.20;96.90;;;;;;5050364;28;20184;-60
2023/03/25 12:42:28;;;;;;;0.10;0.10;;;13.50;96.40;;;;;;5050788;28;20178;-60
2023/03/25 12:45:02;;;;;;;0.00;0.00;;;13.60;95.50;;;;;;5050789;28;20177;-60
2023/03/25 12:47:40;;;;;;;0.00;0.00;;;13.80;95.10;;;;;;5050689;28;20717;-60
2023/03/25 12:50:09;;;;;;;0.00;0.00;;;14.00;94.60;;;;;;5050341;28;20643;-60
2023/03/25 12:52:58;;;;;;;0.00;0.00;;;14.00;93.50;;;;;;5050944;28;20216;-60
2023/03/25 12:56:00;;;;;;;0.00;0.00;;;13.80;91.80;;;;;;5050576;28;20239;-60
2023/03/25 12:58:35;;;;;;;0.00;0.00;;;13.70;92.60;;;;;;5050727;28;20262;-60
2023/03/25 13:01:25;;;;;;;0.00;0.00;;;13.90;93.40;;;;;;5049963;28;20290;-60
2023/03/25 13:03:59;;;;;;;0.00;0.00;;;14.20;94.00;;;;;;5050443;28;20189;-60
2023/03/25 13:06:53;;;;;;;0.00;0.00;;;14.50;93.90;;;;;;5050868;28;20185;-60
2023/03/25 13:09:35;;;;;;;0.00;0.00;;;14.40;93.70;;;;;;5047111;28;20193;-60
2023/03/25 13:12:16;;;;;;;0.00;0.00;;;14.40;93.80;;;;;;5038386;28;20270;-60
2023/03/25 13:15:16;;;;;;;0.00;0.00;;;14.40;93.20;;;;;;5052679;28;20232;-61